Time;durP1;ratioP1;P1;durP2;ratioP2;P2;SDS_P1;SDS_P2;PMS_P1;PMS_P2;Temp;Humidity;BMP_temperature;BMP_pressure;BME280_temperature;BME280_humidity;BME280_pressure;Samples;Min_cycle;Max_cycle;Signal;HPM_P1;HPM_P2
2022/02/18 00:00:20;;;;;;;51.22;7.30;;;;;;;8.85;85.18;99392.75;4973547;28;20544;-74
2022/02/18 00:02:46;;;;;;;65.88;8.85;;;;;;;8.77;84.68;99396.84;4939403;28;20031;-76
2022/02/18 00:05:11;;;;;;;30.00;6.80;;;;;;;8.74;85.29;99356.53;4960612;28;20091;-75
2022/02/18 00:07:37;;;;;;;34.40;9.10;;;;;;;8.70;85.21;99359.00;4959180;28;20516;-76
2022/02/18 00:10:04;;;;;;;41.00;7.88;;;;;;;8.65;85.26;99345.41;4974236;28;20039;-76
2022/02/18 00:12:29;;;;;;;32.55;7.13;;;;;;;8.61;85.27;99329.88;4947330;28;20057;-77
2022/02/18 00:14:55;;;;;;;27.83;4.72;;;;;;;8.50;85.66;99335.38;4953021;28;20023;-75
2022/02/18 00:17:20;;;;;;;39.58;7.10;;;;;;;8.48;85.83;99345.72;4968804;28;20481;-75
2022/02/18 00:19:46;;;;;;;25.48;4.30;;;;;;;8.42;86.24;99314.13;4957255;28;20040;-75
2022/02/18 00:22:11;;;;;;;22.60;4.25;;;;;;;8.39;86.18;99309.22;4969847;28;20175;-76
2022/02/18 00:24:37;;;;;;;29.85;4.50;;;;;;;8.29;86.20;99287.50;4973994;28;20038;-74
2022/02/18 00:27:02;;;;;;;33.60;4.63;;;;;;;8.27;86.90;99270.63;4963236;28;20027;-72
2022/02/18 00:29:28;;;;;;;27.30;3.40;;;;;;;8.28;86.85;99264.91;4968960;28;20046;-73
2022/02/18 00:31:53;;;;;;;33.88;4.25;;;;;;;8.24;87.26;99258.38;4965928;28;20027;-74
2022/02/18 00:34:19;;;;;;;32.60;4.25;;;;;;;8.22;87.40;99249.69;4969002;28;20026;-73
2022/02/18 00:36:44;;;;;;;11.38;3.33;;;;;;;8.23;87.70;99239.59;4962028;28;20023;-73
2022/02/18 00:39:10;;;;;;;25.25;4.75;;;;;;;8.20;87.65;99230.88;4968839;28;20042;-75
2022/02/18 00:41:35;;;;;;;40.42;4.97;;;;;;;8.15;87.70;99225.47;4958468;28;20050;-72
2022/02/18 00:44:01;;;;;;;32.03;3.72;;;;;;;8.09;88.21;99212.97;4972253;28;20113;-74
2022/02/18 00:46:27;;;;;;;17.50;2.75;;;;;;;8.07;88.94;99215.13;4976768;28;20441;-72
2022/02/18 00:48:53;;;;;;;16.20;3.13;;;;;;;8.02;88.56;99201.56;4950786;28;20365;-73
2022/02/18 00:51:18;;;;;;;21.35;3.00;;;;;;;8.00;88.80;99203.72;4969082;28;20026;-73
2022/02/18 00:53:44;;;;;;;18.52;3.53;;;;;;;7.96;89.71;99181.69;4972159;28;20030;-73
2022/02/18 00:56:09;;;;;;;19.50;4.10;;;;;;;7.91;89.52;99172.75;4976871;23;20146;-73
2022/02/18 00:58:35;;;;;;;22.35;2.97;;;;;;;7.88;89.90;99151.53;4952441;29;20366;-73
2022/02/18 01:01:03;;;;;;;11.45;1.65;;;;;;;7.88;90.37;99157.78;4953660;28;20035;-71
2022/02/18 01:03:29;;;;;;;7.55;2.22;;;;;;;7.86;90.10;99144.44;4952239;28;20022;-70
2022/02/18 01:05:54;;;;;;;16.75;4.13;;;;;;;7.81;90.55;99130.88;4950524;28;20401;-73
2022/02/18 01:08:20;;;;;;;10.55;1.52;;;;;;;7.85;90.45;99136.56;4921614;29;20031;-73
2022/02/18 01:10:46;;;;;;;16.50;2.17;;;;;;;7.82;90.44;99115.34;4938398;29;20461;-74
2022/02/18 01:13:14;;;;;;;5.45;1.20;;;;;;;7.86;91.31;99100.09;4955340;28;20037;-72
2022/02/18 01:15:39;;;;;;;4.30;1.25;;;;;;;7.86;91.26;99087.28;4936322;29;20453;-71
2022/02/18 01:18:05;;;;;;;7.22;1.20;;;;;;;7.87;91.28;99074.50;4958402;28;20035;-71
2022/02/18 01:20:31;;;;;;;3.03;1.05;;;;;;;7.93;91.65;99065.22;4926098;29;20039;-74
2022/02/18 01:22:56;;;;;;;6.95;1.05;;;;;;;7.93;91.70;99050.78;4939020;29;20032;-71
2022/02/18 01:25:22;;;;;;;2.20;0.40;;;;;;;7.98;91.43;99045.31;4940103;29;20046;-71
2022/02/18 01:27:47;;;;;;;4.40;1.38;;;;;;;7.97;91.52;99035.50;4941196;29;20042;-73
2022/02/18 01:30:13;;;;;;;8.50;1.35;;;;;;;7.97;91.46;99032.78;4954621;28;20170;-71
2022/02/18 01:32:39;;;;;;;4.28;0.90;;;;;;;7.93;92.21;99021.66;4956375;28;20055;-71
2022/02/18 01:35:15;;;;;;;9.88;1.38;;;;;;;7.91;92.11;99012.16;4938023;28;20062;-69
2022/02/18 01:37:41;;;;;;;1.88;0.85;;;;;;;7.93;92.62;98997.16;4955035;28;20202;-72
2022/02/18 01:40:08;;;;;;;3.53;0.85;;;;;;;7.92;92.73;98967.50;4955712;28;20106;-73
2022/02/18 01:42:34;;;;;;;7.88;1.10;;;;;;;7.95;92.42;98972.38;4944555;29;20108;-73
2022/02/18 01:45:00;;;;;;;1.98;0.60;;;;;;;7.96;92.22;98949.53;4960454;28;20055;-72
2022/02/18 01:47:25;;;;;;;2.28;0.65;;;;;;;7.95;92.85;98923.38;4952057;28;20043;-73
2022/02/18 01:49:58;;;;;;;1.38;0.55;;;;;;;7.99;93.03;98924.44;4938239;29;20035;-71
2022/02/18 01:52:34;;;;;;;2.00;0.68;;;;;;;8.02;92.80;98902.91;4938209;28;20051;-72
2022/02/18 01:55:00;;;;;;;2.38;0.60;;;;;;;8.09;92.82;98891.69;4955938;28;20047;-73
2022/02/18 01:57:26;;;;;;;1.17;0.40;;;;;;;8.15;93.27;98874.19;4952671;28;21218;-71
2022/02/18 01:59:52;;;;;;;1.58;0.40;;;;;;;8.17;92.82;98871.19;4951402;28;20039;-73
2022/02/18 02:02:18;;;;;;;8.20;0.65;;;;;;;8.17;93.31;98858.38;4939538;29;20024;-72
2022/02/18 02:04:45;;;;;;;1.50;0.30;;;;;;;8.20;93.11;98841.44;4937992;28;20497;-70
2022/02/18 02:07:11;;;;;;;1.70;0.63;;;;;;;8.26;93.73;98830.50;4953081;28;20028;-72
2022/02/18 02:09:36;;;;;;;0.93;0.30;;;;;;;8.28;93.68;98822.84;4957592;28;20043;-71
2022/02/18 02:12:04;;;;;;;3.45;0.30;;;;;;;8.34;93.67;98811.63;4958928;28;20497;-72
2022/02/18 02:14:30;;;;;;;0.85;0.50;;;;;;;8.36;93.80;98803.16;4947301;28;20051;-72
2022/02/18 02:16:56;;;;;;;0.30;0.20;;;;;;;8.39;94.44;98776.13;4951061;28;20493;-71
2022/02/18 02:19:21;;;;;;;1.45;0.65;;;;;;;8.49;94.28;98777.94;4949589;28;20028;-72
2022/02/18 02:21:51;;;;;;;0.38;0.10;;;;;;;8.53;94.14;98781.72;4940652;28;20034;-73
2022/02/18 02:24:18;;;;;;;0.52;0.25;;;;;;;8.58;94.55;98760.97;4963319;28;20569;-71
2022/02/18 02:26:43;;;;;;;4.03;0.40;;;;;;;8.61;94.88;98755.72;4953917;28;20036;-73
2022/02/18 02:29:13;;;;;;;1.27;0.22;;;;;;;8.68;94.94;98745.28;4930665;29;20787;-72
2022/02/18 02:31:43;;;;;;;0.75;0.25;;;;;;;8.74;95.30;98759.63;4960472;28;20078;-72
2022/02/18 02:34:10;;;;;;;4.97;0.77;;;;;;;8.77;96.48;98731.78;4957474;28;20015;-71
2022/02/18 02:36:35;;;;;;;6.13;1.08;;;;;;;8.84;97.73;98713.16;4956432;28;20031;-71
2022/02/18 02:39:02;;;;;;;2.05;0.25;;;;;;;8.96;97.83;98717.34;4950140;28;20032;-72
2022/02/18 02:41:28;;;;;;;4.53;0.73;;;;;;;9.00;99.00;98685.66;4948142;28;20050;-73
2022/02/18 02:43:53;;;;;;;4.38;1.27;;;;;;;9.17;99.02;98706.91;4955401;28;20110;-73
2022/02/18 02:46:19;;;;;;;3.42;1.10;;;;;;;9.25;99.07;98684.41;4959525;28;20043;-75
2022/02/18 02:48:44;;;;;;;4.93;0.80;;;;;;;9.34;98.74;98668.16;4956569;28;20039;-73
2022/02/18 02:51:13;;;;;;;3.70;1.15;;;;;;;9.39;99.70;98659.91;4944114;29;20035;-71
2022/02/18 02:53:40;;;;;;;5.20;0.90;;;;;;;9.48;100.00;98652.63;4961854;28;20499;-73
2022/02/18 02:56:06;;;;;;;4.45;0.95;;;;;;;9.51;99.54;98634.84;4958209;28;20113;-73
2022/02/18 02:58:32;;;;;;;5.75;1.15;;;;;;;9.54;100.00;98623.31;4944557;29;20106;-74
2022/02/18 03:00:58;;;;;;;3.95;1.00;;;;;;;9.61;100.00;98619.06;4948904;28;20066;-73
2022/02/18 03:03:23;;;;;;;5.28;1.48;;;;;;;9.63;100.00;98601.59;4943163;29;20043;-71
2022/02/18 03:05:49;;;;;;;4.55;1.70;;;;;;;9.66;100.00;98601.78;4932032;29;20062;-73
2022/02/18 03:08:18;;;;;;;6.50;0.95;;;;;;;9.69;100.00;98603.09;4950431;28;20031;-72
2022/02/18 03:11:14;;;;;;;14.63;1.58;;;;;;;9.78;100.00;98590.34;4951398;28;20091;-72
2022/02/18 03:13:32;;;;;;;7.47;1.30;;;;;;;9.82;100.00;98602.25;4949061;28;20038;-73
2022/02/18 03:15:57;;;;;;;13.05;2.63;;;;;;;9.82;100.00;98596.81;4949683;28;20031;-73
2022/02/18 03:18:23;;;;;;;7.97;1.30;;;;;;;9.85;100.00;98584.47;4949256;28;20083;-71
2022/02/18 03:20:49;;;;;;;12.27;1.75;;;;;;;9.89;100.00;98569.09;4964478;28;20023;-73
2022/02/18 03:23:15;;;;;;;11.77;1.42;;;;;;;9.91;100.00;98584.03;4958222;28;20035;-72
2022/02/18 03:25:43;;;;;;;14.63;1.80;;;;;;;9.93;100.00;98559.97;4954501;28;20015;-73
2022/02/18 03:28:09;;;;;;;8.55;1.13;;;;;;;9.99;100.00;98563.41;4936861;28;20039;-73
2022/02/18 03:30:43;;;;;;;7.63;1.15;;;;;;;10.00;100.00;98558.75;4944656;28;20366;-72
2022/02/18 03:33:11;;;;;;;6.93;0.73;;;;;;;10.01;100.00;98543.97;4942823;29;20055;-73
2022/02/18 03:39:09;;;;;;;2.67;0.73;;;;;;;9.99;100.00;98527.09;4941113;28;20035;-77
2022/02/18 03:41:47;;;;;;;3.25;0.82;;;;;;;10.04;100.00;98510.59;4927080;29;20113;-73
2022/02/18 03:44:25;;;;;;;;;;;;;;;;;;;;;
2022/02/18 03:47:01;;;;;;;6.10;0.90;;;;;;;10.06;100.00;98502.88;4935371;29;20119;-73
2022/02/18 03:49:35;;;;;;;10.88;1.23;;;;;;;10.07;100.00;98509.97;4939934;29;20034;-72
2022/02/18 03:52:06;;;;;;;8.97;1.23;;;;;;;10.09;100.00;98515.91;4954059;28;20065;-74
2022/02/18 03:54:31;;;;;;;5.10;1.13;;;;;;;10.10;100.00;98509.34;4941399;29;20836;-73
2022/02/18 03:56:57;;;;;;;11.32;0.95;;;;;;;10.14;100.00;98504.88;4958394;28;20069;-72
2022/02/18 03:59:24;;;;;;;5.63;0.95;;;;;;;10.15;100.00;98490.13;4961720;29;20466;-76
2022/02/18 04:01:53;;;;;;;6.25;0.88;;;;;;;10.16;100.00;98448.00;4974514;28;20042;-77
2022/02/18 04:07:15;;;;;;;3.75;0.70;;;;;;;10.21;100.00;98439.72;4944933;28;20039;-75
2022/02/18 04:09:40;;;;;;;3.13;0.68;;;;;;;10.25;100.00;98499.97;4946712;28;20031;-76
2022/02/18 04:12:09;;;;;;;3.33;0.60;;;;;;;10.23;100.00;98423.81;4948074;28;20023;-73
2022/02/18 04:14:35;;;;;;;5.40;1.08;;;;;;;10.23;100.00;98439.41;4950967;28;20031;-71
2022/02/18 04:17:14;;;;;;;7.18;0.90;;;;;;;10.25;100.00;98423.50;4948034;28;20033;-74
2022/02/18 04:19:40;;;;;;;1.70;0.60;;;;;;;10.27;100.00;98411.13;4915323;28;20695;-73
2022/02/18 04:22:05;;;;;;;3.03;0.90;;;;;;;10.29;100.00;98403.44;4921155;29;20042;-73
2022/02/18 04:24:31;;;;;;;6.03;1.33;;;;;;;10.29;100.00;98406.19;4947910;28;20042;-73
2022/02/18 04:26:57;;;;;;;2.17;0.40;;;;;;;10.29;100.00;98400.72;4917802;29;20389;-72
2022/02/18 04:29:23;;;;;;;2.15;0.25;;;;;;;10.30;100.00;98388.66;4951637;28;20062;-78
2022/02/18 04:31:51;;;;;;;2.58;0.40;;;;;;;10.31;100.00;98398.47;4959712;28;20027;-76
2022/02/18 04:34:17;;;;;;;2.67;0.50;;;;;;;10.34;100.00;98398.97;4939535;28;20027;-76
2022/02/18 04:36:45;;;;;;;1.45;0.35;;;;;;;10.31;100.00;98379.34;4959541;28;20019;-74
2022/02/18 04:39:10;;;;;;;3.58;0.22;;;;;;;10.33;100.00;98435.59;4938117;28;20728;-75
2022/02/18 04:41:38;;;;;;;0.50;0.20;;;;;;;10.35;100.00;98359.63;4938855;28;20482;-74
2022/02/18 04:44:05;;;;;;;1.58;0.40;;;;;;;10.37;100.00;98354.66;4959319;28;20031;-74
2022/02/18 04:46:33;;;;;;;0.73;0.35;;;;;;;10.36;100.00;98353.84;4956548;28;20030;-74
2022/02/18 04:48:59;;;;;;;0.47;0.20;;;;;;;10.37;100.00;98332.81;4948996;28;20035;-75
2022/02/18 04:51:25;;;;;;;1.63;0.32;;;;;;;10.38;100.00;98339.84;4957996;28;20046;-75
2022/02/18 04:53:58;;;;;;;0.85;0.30;;;;;;;10.38;100.00;98356.25;4947040;28;20030;-76
2022/02/18 04:56:23;;;;;;;0.40;0.10;;;;;;;10.38;100.00;98331.66;4964380;28;20062;-74
2022/02/18 04:58:49;;;;;;;2.15;0.38;;;;;;;10.40;100.00;98337.63;4958053;28;20028;-76
2022/02/18 05:01:23;;;;;;;0.57;0.30;;;;;;;10.39;100.00;98330.56;4950043;28;20104;-76
2022/02/18 05:03:50;;;;;;;0.80;0.38;;;;;;;10.37;100.00;98286.34;4957012;28;20030;-76
2022/02/18 05:06:23;;;;;;;4.18;0.28;;;;;;;10.37;100.00;98297.28;4958822;28;20039;-75
2022/02/18 05:08:49;;;;;;;3.67;0.25;;;;;;;10.39;100.00;98278.63;4954966;28;20077;-76
2022/02/18 05:11:22;;;;;;;1.08;0.40;;;;;;;10.36;100.00;98287.47;4956373;28;20106;-75
2022/02/18 05:13:47;;;;;;;0.95;0.30;;;;;;;10.41;100.00;98265.47;4964478;28;20027;-74
2022/02/18 05:16:13;;;;;;;1.80;0.30;;;;;;;10.44;100.00;98289.41;4959503;28;20034;-75
2022/02/18 05:18:43;;;;;;;5.25;0.20;;;;;;;10.42;100.00;98291.66;4923894;29;20035;-75
2022/02/18 05:21:09;;;;;;;3.08;0.30;;;;;;;10.42;100.00;98247.94;4938871;29;20051;-76
2022/02/18 05:23:47;;;;;;;2.47;0.68;;;;;;;10.42;100.00;98280.72;4931416;29;20027;-74
2022/02/18 05:26:13;;;;;;;1.42;0.57;;;;;;;10.42;100.00;98275.28;4931945;28;20046;-74
2022/02/18 05:28:43;;;;;;;0.30;0.10;;;;;;;10.42;100.00;98237.03;4937342;29;20548;-74
2022/02/18 05:31:08;;;;;;;7.55;0.35;;;;;;;10.34;100.00;98221.41;4946520;28;20078;-76
2022/02/18 05:33:39;;;;;;;1.55;0.40;;;;;;;10.30;100.00;98246.59;4940304;29;20031;-75
2022/02/18 05:36:11;;;;;;;0.95;0.35;;;;;;;10.23;100.00;98213.47;4923326;28;20031;-74
2022/02/18 05:38:38;;;;;;;0.43;0.20;;;;;;;10.19;100.00;98274.53;4932981;29;20045;-75
2022/02/18 05:41:13;;;;;;;1.63;0.30;;;;;;;10.14;100.00;98259.88;4937476;29;20031;-75
2022/02/18 05:43:42;;;;;;;4.43;0.20;;;;;;;10.06;100.00;98246.19;4957335;28;20023;-73
2022/02/18 05:46:08;;;;;;;0.43;0.00;;;;;;;9.95;100.00;98257.41;4945646;28;20043;-75
2022/02/18 05:48:34;;;;;;;3.55;0.22;;;;;;;9.76;100.00;98199.53;4957195;28;20049;-74
2022/02/18 05:51:08;;;;;;;0.52;0.20;;;;;;;9.64;100.00;98232.88;4952463;28;20034;-76
2022/02/18 05:53:34;;;;;;;0.35;0.30;;;;;;;9.58;100.00;98207.63;4928627;29;20023;-75
2022/02/18 05:56:04;;;;;;;0.03;0.00;;;;;;;9.55;100.00;98232.81;4950606;28;20071;-74
2022/02/18 05:58:32;;;;;;;3.22;0.35;;;;;;;9.58;100.00;98215.81;4965612;28;20500;-73
2022/02/18 06:00:58;;;;;;;8.65;1.27;;;;;;;9.59;100.00;98217.44;4950169;28;20095;-75
2022/02/18 06:03:23;;;;;;;3.28;0.60;;;;;;;9.59;100.00;98233.81;4963700;29;20033;-74
2022/02/18 06:05:56;;;;;;;3.90;1.25;;;;;;;9.59;100.00;98195.59;4963843;28;20094;-74
2022/02/18 06:08:26;;;;;;;4.65;1.00;;;;;;;9.55;100.00;98201.97;4949591;28;20046;-74
2022/02/18 06:10:51;;;;;;;16.50;1.30;;;;;;;9.53;100.00;98185.94;4960286;28;20038;-76
2022/02/18 06:13:18;;;;;;;20.50;2.00;;;;;;;9.50;100.00;98156.53;4947961;28;20022;-75
2022/02/18 06:15:45;;;;;;;12.52;2.50;;;;;;;9.44;100.00;98155.09;4955862;28;20355;-74
2022/02/18 06:18:15;;;;;;;11.75;1.52;;;;;;;9.40;100.00;98148.63;4933955;28;20031;-72
2022/02/18 06:20:40;;;;;;;16.48;2.10;;;;;;;9.47;100.00;98154.44;4943469;29;20034;-78
2022/02/18 06:23:16;;;;;;;;;;;;;;;;;;;;;
2022/02/18 06:25:45;;;;;;;7.93;1.88;;;;;;;9.34;100.00;98155.34;4937526;28;20021;-76
2022/02/18 06:28:40;;;;;;;;;;;;;;;;;;;;;
2022/02/18 06:31:10;;;;;;;15.25;2.55;;;;;;;9.35;100.00;98170.59;4960610;28;20130;-75
2022/02/18 06:33:37;;;;;;;31.00;3.13;;;;;;;9.30;100.00;98133.38;4944519;29;20097;-73
2022/02/18 06:36:04;;;;;;;19.73;3.90;;;;;;;9.29;100.00;98153.56;4959672;28;20035;-72
2022/02/18 06:38:44;;;;;;;;;;;;;;;;;;;;;
2022/02/18 06:41:16;;;;;;;18.73;3.30;;;;;;;9.20;100.00;98148.06;4952706;28;20102;-75
2022/02/18 06:43:41;;;;;;;23.70;2.75;;;;;;;9.16;99.98;98154.47;4961941;28;20110;-72
2022/02/18 06:46:07;;;;;;;29.73;4.72;;;;;;;9.07;99.72;98151.69;4953619;28;20138;-73
2022/02/18 06:48:35;;;;;;;43.28;4.40;;;;;;;9.02;98.96;98154.53;4959553;28;20035;-73
2022/02/18 06:51:02;;;;;;;24.08;4.90;;;;;;;8.97;99.34;98125.47;4959838;28;20034;-74
2022/02/18 06:53:28;;;;;;;40.88;4.70;;;;;;;8.91;98.91;98102.19;4960805;28;20496;-75
2022/02/18 06:55:53;;;;;;;27.05;4.57;;;;;;;8.90;99.49;98123.19;4929941;29;20038;-74
2022/02/18 06:58:19;;;;;;;35.53;4.85;;;;;;;8.85;99.20;98106.97;4959831;28;20039;-74
2022/02/18 07:00:44;;;;;;;53.80;5.82;;;;;;;8.84;99.23;98116.25;4955514;28;20027;-75
2022/02/18 07:03:10;;;;;;;36.25;4.65;;;;;;;8.83;98.68;98114.63;4959148;28;20035;-74
2022/02/18 07:05:36;;;;;;;35.25;5.47;;;;;;;8.80;98.37;98109.81;4955163;28;20031;-74
2022/02/18 07:08:04;;;;;;;46.42;5.18;;;;;;;8.77;98.45;98096.81;4952418;28;20035;-74
2022/02/18 07:10:33;;;;;;;44.35;7.25;;;;;;;8.72;98.32;98116.03;4958527;28;20054;-76
2022/02/18 07:12:59;;;;;;;39.92;5.95;;;;;;;8.67;97.52;98124.31;4927248;28;20039;-75
2022/02/18 07:15:36;;;;;;;55.50;6.28;;;;;;;8.60;97.39;98093.97;4971710;28;20019;-77
2022/02/18 07:18:09;;;;;;;38.65;6.57;;;;;;;8.57;97.26;98109.00;4966667;28;20106;-78
2022/02/18 07:20:34;;;;;;;42.70;6.35;;;;;;;8.53;96.88;98105.31;4962886;28;20031;-75
2022/02/18 07:23:02;;;;;;;56.63;7.88;;;;;;;8.51;96.07;98113.81;4963305;28;20031;-75
2022/02/18 07:25:28;;;;;;;63.05;7.88;;;;;;;8.44;96.12;98105.25;4945782;29;20165;-75
2022/02/18 07:27:54;;;;;;;57.85;8.02;;;;;;;8.41;96.41;98124.91;4946253;29;20074;-75
2022/02/18 07:30:19;;;;;;;64.35;7.18;;;;;;;8.41;96.23;98108.56;4960837;28;20038;-75
2022/02/18 07:32:45;;;;;;;55.20;6.35;;;;;;;8.49;96.87;98104.31;4951721;28;20058;-75
2022/02/18 07:35:10;;;;;;;77.40;9.15;;;;;;;8.45;96.32;98136.00;4927209;28;20483;-74
2022/02/18 07:37:36;;;;;;;58.90;8.57;;;;;;;8.43;95.81;98119.16;4945653;29;20086;-77
2022/02/18 07:40:09;;;;;;;68.28;8.77;;;;;;;8.36;95.45;98154.97;4948104;28;20031;-77
2022/02/18 07:42:37;;;;;;;47.08;5.95;;;;;;;8.34;95.31;98117.16;4917262;29;20367;-80
2022/02/18 07:45:02;;;;;;;46.38;5.78;;;;;;;8.34;94.29;98132.69;4954584;28;20077;-78
2022/02/18 07:47:28;;;;;;;42.60;6.18;;;;;;;8.35;94.99;98154.16;4935768;29;20487;-76
2022/02/18 07:49:54;;;;;;;66.47;7.53;;;;;;;8.29;93.69;98122.69;4950970;28;20102;-75
2022/02/18 07:52:22;;;;;;;59.28;7.38;;;;;;;8.28;93.82;98147.50;4953881;28;20027;-75
2022/02/18 07:54:58;;;;;;;65.97;8.25;;;;;;;8.25;93.41;98115.44;4941450;29;20054;-75
2022/02/18 07:57:46;;;;;;;36.78;6.45;;;;;;;8.20;93.21;98109.00;4936820;29;20039;-76
2022/02/18 08:00:22;;;;;;;52.33;6.82;;;;;;;8.21;92.84;98118.78;4923559;29;20036;-75
2022/02/18 08:02:48;;;;;;;;;;;;;;;8.26;92.44;98100.75;4919691;29;20122;-75
2022/02/18 08:05:17;;;;;;;52.88;7.10;;;;;;;8.15;91.97;98111.06;4955089;29;19952;-77
2022/02/18 08:07:49;;;;;;;58.55;6.05;;;;;;;8.20;92.89;98132.72;4953821;28;20390;-74
2022/02/18 08:10:15;;;;;;;48.05;6.10;;;;;;;8.12;91.94;98101.59;4936582;29;20016;-75
2022/02/18 08:12:44;;;;;;;52.22;6.80;;;;;;;8.12;92.13;98139.69;4953594;28;20048;-72
2022/02/18 08:15:09;;;;;;;44.10;6.28;;;;;;;8.15;91.48;98083.84;4928319;29;20027;-73
2022/02/18 08:17:40;;;;;;;47.92;5.78;;;;;;;8.15;91.76;98079.19;4948762;28;20685;-72
2022/02/18 08:20:08;;;;;;;46.17;5.75;;;;;;;8.16;91.62;98088.97;4921708;29;20036;-73
2022/02/18 08:22:33;;;;;;;54.63;6.63;;;;;;;8.07;90.47;98060.06;4952676;28;20082;-73
2022/02/18 08:25:00;;;;;;;47.70;6.13;;;;;;;8.07;90.22;98093.53;4935971;29;20020;-74
2022/02/18 08:27:33;;;;;;;46.88;6.88;;;;;;;8.01;90.38;98057.44;4945734;28;20040;-80
2022/02/18 08:29:59;;;;;;;43.38;5.55;;;;;;;8.02;90.62;98047.38;4933172;29;20040;-75
2022/02/18 08:32:36;;;;;;;;;;;;;;;;;;;;;
2022/02/18 08:35:02;;;;;;;36.75;5.47;;;;;;;7.83;89.09;98032.00;4933767;29;20452;-76
2022/02/18 08:37:35;;;;;;;44.33;5.22;;;;;;;7.69;89.13;98017.63;4933364;29;20027;-74
2022/02/18 08:40:01;;;;;;;44.25;6.50;;;;;;;7.61;89.94;98061.88;4929170;29;20028;-73
2022/02/18 08:42:27;;;;;;;40.92;6.53;;;;;;;7.31;89.80;98045.06;4948219;29;20031;-75
2022/02/18 08:44:53;;;;;;;37.45;4.38;;;;;;;7.08;89.85;98047.69;4945158;29;20044;-78
2022/02/18 08:47:36;;;;;;;;;;;;;;;;;;;;;
2022/02/18 08:50:16;;;;;;;39.67;4.28;;;;;;;6.79;91.66;98035.19;4912075;29;20031;-79
2022/02/18 08:52:50;;;;;;;42.65;4.05;;;;;;;6.81;91.13;97984.06;4960896;28;20533;-79
2022/02/18 08:55:20;;;;;;;23.52;3.03;;;;;;;6.97;91.99;98002.78;4947172;28;20047;-77
2022/02/18 08:57:53;;;;;;;26.40;3.35;;;;;;;7.09;90.63;97975.91;4941586;29;20028;-76
2022/02/18 09:00:19;;;;;;;25.55;3.40;;;;;;;7.28;89.75;98040.25;4953463;29;20039;-76
2022/02/18 09:03:16;;;;;;;31.08;3.78;;;;;;;7.28;88.86;98002.19;4947876;29;20027;-76
2022/02/18 09:06:27;;;;;;;42.08;4.45;;;;;;;7.67;89.28;97968.16;4961686;28;20030;-76
2022/02/18 09:08:52;;;;;;;40.85;4.78;;;;;;;7.85;86.83;97939.97;4937811;29;20085;-75
2022/02/18 09:11:30;;;;;;;28.10;3.50;;;;;;;7.83;85.93;97928.59;4931782;29;20096;-75
2022/02/18 09:14:41;;;;;;;;;;;;;;;;;;;;;
2022/02/18 09:35:39;;;;;;;35.53;5.53;;;;;;;9.14;79.15;97854.84;5755043;23;20327;-75
2022/02/18 09:38:18;;;;;;;;;;;;;;;;;;;;;
2022/02/18 09:40:44;;;;;;;27.63;4.80;;;;;;;9.46;76.63;97934.59;4977619;28;20122;-77
2022/02/18 09:43:11;;;;;;;40.22;5.13;;;;;;;9.69;77.74;97844.41;4971963;28;20102;-76
2022/02/18 09:45:40;;;;;;;30.45;3.92;;;;;;;9.57;77.23;97782.31;4968770;28;20023;-77
2022/02/18 09:48:05;;;;;;;45.05;5.43;;;;;;;9.53;77.53;97784.88;4963281;28;20041;-74
2022/02/18 09:50:38;;;;;;;31.73;4.63;;;;;;;9.46;79.17;97791.94;4981142;28;20050;-79
2022/02/18 09:53:25;;;;;;;;;;;;;;;;;;;;;
2022/02/18 09:55:55;;;;;;;34.70;5.25;;;;;;;8.95;77.77;97844.25;4973686;28;20098;-77
2022/02/18 09:58:22;;;;;;;55.83;6.70;;;;;;;8.71;80.08;97792.91;4963161;28;20087;-76
2022/02/18 10:00:51;;;;;;;38.05;4.85;;;;;;;8.62;81.35;97699.47;4970695;28;20078;-77
2022/02/18 10:03:17;;;;;;;32.75;4.45;;;;;;;8.81;79.20;97773.53;4938026;28;20057;-74
2022/02/18 10:05:53;;;;;;;23.58;3.72;;;;;;;9.05;78.01;97762.16;4973280;28;20526;-71
2022/02/18 10:08:22;;;;;;;27.98;3.92;;;;;;;9.54;76.95;97729.19;4950153;28;20031;-74
2022/02/18 10:11:03;;;;;;;31.50;4.60;;;;;;;9.73;73.38;97736.22;4976023;28;20027;-73
2022/02/18 10:13:30;;;;;;;26.00;4.40;;;;;;;9.74;74.12;97732.38;4948494;28;20562;-74
2022/02/18 10:16:09;;;;;;;45.90;4.55;;;;;;;9.43;73.70;97793.41;4958083;28;20078;-72
2022/02/18 10:18:56;;;;;;;37.75;4.28;;;;;;;9.00;75.39;97764.25;4950479;28;20034;-72
2022/02/18 10:21:44;;;;;;;19.05;4.22;;;;;;;8.68;77.60;97704.44;4963133;28;20038;-77
2022/02/18 10:24:21;;;;;;;30.13;4.53;;;;;;;8.43;79.48;97702.47;4955682;28;20228;-77
2022/02/18 10:27:02;;;;;;;;;;;;;;;;;;;;;
2022/02/18 10:29:33;;;;;;;29.55;4.03;;;;;;;8.12;80.13;97630.66;4967830;28;20107;-74
2022/02/18 10:32:14;;;;;;;36.35;4.45;;;;;;;8.26;79.69;97659.66;4959698;28;20035;-75
2022/02/18 10:35:25;;;;;;;;;;;;;;;;;;;;;
2022/02/18 10:38:30;;;;;;;;;;;;;;;;;;;;;
2022/02/18 10:41:29;;;;;;;;;;;;;;;;;;;;;
2022/02/18 10:44:02;;;;;;;61.28;7.40;;;;;;;8.39;80.53;97582.47;4962898;28;20130;-75
2022/02/18 10:46:55;;;;;;;26.67;5.30;;;;;;;8.59;78.87;97602.06;4943773;28;20117;-76
2022/02/18 10:49:36;;;;;;;42.50;6.05;;;;;;;8.90;78.86;97608.06;4969005;28;20425;-74
2022/02/18 10:52:13;;;;;;;28.02;3.85;;;;;;;9.05;77.99;97614.13;4977904;28;20036;-76
2022/02/18 10:54:50;;;;;;;;;;;;;;;;;;;;;
2022/02/18 10:57:30;;;;;;;29.15;4.95;;;;;;;9.08;77.93;97635.28;4984964;28;20106;-75
2022/02/18 10:59:56;;;;;;;25.75;4.43;;;;;;;9.05;78.49;97680.38;4962302;28;20049;-77
2022/02/18 11:02:52;;;;;;;;;;;;;;;;;;;;;
2022/02/18 11:05:29;;;;;;;29.08;5.28;;;;;;;9.37;77.28;97625.59;4974190;28;20131;-75
2022/02/18 11:07:56;;;;;;;34.35;3.20;;;;;;;9.54;74.95;97576.44;4982481;28;20093;-74
2022/02/18 11:10:46;;;;;;;24.52;3.65;;;;;;;9.49;77.04;97647.56;4970740;28;20022;-75
2022/02/18 11:13:12;;;;;;;20.27;2.75;;;;;;;9.58;77.75;97634.66;4975713;28;20046;-75
2022/02/18 11:15:39;;;;;;;20.63;4.18;;;;;;;9.59;75.70;97595.34;4961446;28;20671;-75
2022/02/18 11:18:18;;;;;;;;;;;;;;;;;;;;;
2022/02/18 11:20:56;;;;;;;;;;;;;;;;;;;;;
2022/02/18 11:23:31;;;;;;;8.30;2.63;;;;;;;9.65;73.66;97639.63;4975762;28;20086;-74
2022/02/18 11:28:50;;;;;;;9.60;1.85;;;;;;;10.85;70.12;97618.41;4974792;28;20034;-71
2022/02/18 11:31:46;;;;;;;4.20;2.08;;;;;;;11.00;68.37;97675.19;4980873;28;20490;-75
2022/02/18 11:34:42;;;;;;;3.95;0.68;;;;;;;10.93;68.83;97753.44;4978049;28;20061;-77
2022/02/18 11:37:44;;;;;;;12.10;1.67;;;;;;;10.29;68.23;97671.38;4982237;28;20042;-78
2022/02/18 11:40:25;;;;;;;8.40;2.13;;;;;;;9.82;70.92;97690.56;4974774;28;20034;-72
2022/02/18 11:43:32;;;;;;;6.78;1.63;;;;;;;9.35;72.19;97846.03;4980311;28;20118;-75
2022/02/18 11:46:00;;;;;;;5.28;1.90;;;;;;;8.99;73.49;97713.56;4967595;28;20039;-79
2022/02/18 11:48:49;;;;;;;8.35;1.42;;;;;;;8.69;75.25;97751.56;4991569;28;20033;-79
2022/02/18 12:05:39;;;;;;;9.27;2.28;;;;;;;8.24;77.20;97770.81;4926102;28;20035;-76
2022/02/18 12:11:48;;;;;;;;;;;;;;;;;;;;;
2022/02/18 12:18:34;;;;;;;33.83;2.63;;;;;;;6.50;83.63;97906.97;4856184;29;20133;-72
2022/02/18 12:25:25;;;;;;;6.45;1.58;;;;;;;6.00;82.01;97994.41;4775394;29;20050;-71
2022/02/18 12:28:21;;;;;;;17.83;1.73;;;;;;;6.25;83.13;97950.59;4812221;29;20062;-72
2022/02/18 12:31:20;;;;;;;33.55;2.67;;;;;;;6.95;80.13;98162.59;4822046;29;20381;-71
2022/02/18 12:34:26;;;;;;;28.67;2.95;;;;;;;6.51;83.85;98061.44;4849808;29;20101;-72
2022/02/18 12:41:09;;;;;;;;;;;;;;;;;;;;;
2022/02/18 12:44:25;;;;;;;4.90;1.33;;;;;;;5.13;89.98;98066.84;4827341;29;20091;-71
2022/02/18 12:50:44;;;;;;;;;;;;;;;;;;;;;
2022/02/18 12:53:50;;;;;;;10.40;2.53;;;;;;;5.60;97.15;98139.19;4815811;29;20800;-71
2022/02/18 12:56:58;;;;;;;;;;;;;;;;;;;;;
2022/02/18 13:00:01;;;;;;;25.48;1.85;;;;;;;6.76;88.00;98171.59;4885594;29;20072;-76
2022/02/18 13:03:03;;;;;;;;;;;;;;;;;;;;;
2022/02/18 13:05:37;;;;;;;30.90;4.97;;;;;;;6.74;85.21;98141.19;4881100;29;20124;-75
2022/02/18 13:52:54;;;;;;;10.15;1.58;;;;;;;9.02;55.92;98504.31;4966256;28;20046;-76
2022/02/18 13:55:48;;;;;;;;;;;;;;;;;;;;;
2022/02/18 14:08:51;;;;;;;;;;;;;;;;;;;;;
2022/02/18 14:11:18;;;;;;;5.82;1.15;;;;;;;9.36;54.10;98575.91;4917255;29;20111;-72
2022/02/18 14:13:49;;;;;;;13.93;1.90;;;;;;;9.78;52.65;98549.38;4942315;28;20036;-75
2022/02/18 14:16:29;;;;;;;;;;;;;;;;;;;;;
2022/02/18 14:19:20;;;;;;;11.75;1.85;;;;;;;9.63;51.53;98647.97;4958590;28;20110;-72
2022/02/18 14:22:02;;;;;;;11.73;0.93;;;;;;;9.95;49.53;98672.41;4943621;28;20382;-69